createdAt,value
2018-06-18T00:02:04.829Z,100.00
2018-06-18T00:04:33.906Z,100.00
2018-06-18T00:07:03.185Z,100.00
2018-06-18T00:09:43.946Z,100.00
2018-06-18T00:12:13.046Z,100.00
2018-06-18T00:14:42.306Z,100.00
2018-06-18T00:17:11.402Z,100.00
2018-06-18T00:22:16.486Z,100.00
2018-06-18T00:24:46.588Z,100.00
2018-06-18T00:27:15.659Z,100.00
2018-06-18T00:29:44.770Z,100.00
2018-06-18T00:32:13.844Z,100.00
2018-06-18T00:34:42.926Z,100.00
2018-06-18T00:37:12.023Z,100.00
2018-06-18T00:39:41.179Z,100.00
2018-06-18T00:42:10.234Z,100.00
2018-06-18T00:47:16.078Z,100.00
2018-06-18T00:49:52.735Z,100.00
2018-06-18T00:52:21.802Z,100.00
2018-06-18T00:54:50.869Z,100.00
2018-06-18T00:57:21.729Z,100.00
2018-06-18T00:59:50.985Z,100.00
2018-06-18T01:04:55.763Z,100.00
2018-06-18T01:10:03.110Z,100.00
2018-06-18T01:12:36.075Z,100.00
2018-06-18T01:15:05.298Z,100.00
2018-06-18T01:17:35.422Z,100.00
2018-06-18T01:20:05.497Z,100.00
2018-06-18T01:22:34.584Z,100.00
2018-06-18T01:25:04.614Z,100.00
2018-06-18T01:27:33.903Z,100.00
2018-06-18T01:30:09.017Z,100.00
2018-06-18T01:32:38.273Z,100.00
2018-06-18T01:35:07.350Z,100.00
2018-06-18T01:37:36.415Z,100.00
2018-06-18T01:40:05.774Z,100.00
2018-06-18T01:42:34.846Z,100.00
2018-06-18T01:50:27.369Z,100.00
2018-06-18T01:53:09.484Z,100.00
2018-06-18T01:55:38.703Z,100.00
2018-06-18T01:58:07.750Z,100.00
2018-06-18T02:00:36.825Z,100.00
2018-06-18T02:03:20.628Z,100.00
2018-06-18T02:06:08.706Z,100.00
2018-06-18T02:08:37.769Z,100.00
2018-06-18T02:14:08.993Z,100.00
2018-06-18T02:16:38.419Z,100.00
2018-06-18T02:19:20.535Z,100.00
2018-06-18T02:21:49.633Z,100.00
2018-06-18T02:24:20.514Z,100.00
2018-06-18T02:26:49.587Z,100.00
2018-06-18T02:32:00.024Z,100.00
2018-06-18T02:42:29.009Z,100.00
2018-06-18T02:44:58.096Z,100.00
2018-06-18T02:50:02.879Z,100.00
2018-06-18T02:55:09.661Z,100.00
2018-06-18T02:57:38.955Z,100.00
2018-06-18T03:00:08.001Z,100.00
2018-06-18T03:05:15.990Z,100.00
2018-06-18T03:07:45.096Z,100.00
2018-06-18T03:10:14.223Z,100.00
2018-06-18T03:15:19.057Z,100.00
2018-06-18T03:17:49.800Z,100.00
2018-06-18T03:31:45.500Z,100.00
2018-06-18T03:34:15.578Z,100.00
2018-06-18T03:36:45.188Z,100.00
2018-06-18T03:39:18.334Z,100.00
2018-06-18T03:41:48.536Z,100.00
2018-06-18T03:44:29.653Z,100.00
2018-06-18T03:46:58.759Z,100.00
2018-06-18T03:49:35.389Z,100.00
2018-06-18T03:52:04.463Z,100.00
2018-06-18T03:54:44.074Z,100.00
2018-06-18T03:57:16.944Z,100.00
2018-06-18T03:59:46.373Z,100.00
2018-06-18T04:13:39.277Z,100.00
2018-06-18T04:16:12.086Z,100.00
2018-06-18T04:18:44.126Z,100.00
2018-06-18T04:23:50.143Z,100.00
2018-06-18T04:26:33.049Z,100.00
2018-06-18T04:29:02.155Z,100.00
2018-06-18T04:34:09.817Z,100.00
2018-06-18T04:36:39.917Z,100.00
2018-06-18T04:39:09.981Z,100.00
2018-06-18T04:41:39.156Z,100.00
2018-06-18T04:46:44.350Z,100.00
2018-06-18T04:51:50.778Z,100.00
2018-06-18T04:54:24.395Z,100.00
2018-06-18T04:57:02.510Z,100.00
2018-06-18T04:59:33.566Z,100.00
2018-06-18T05:02:06.154Z,100.00
2018-06-18T05:04:36.174Z,100.00
2018-06-18T05:07:06.380Z,100.00
2018-06-18T05:09:36.642Z,100.00
2018-06-18T05:12:05.720Z,100.00
2018-06-18T05:14:34.809Z,100.00
2018-06-18T05:17:04.174Z,100.00
2018-06-18T05:19:33.248Z,100.00
2018-06-18T05:22:02.317Z,98.44
2018-06-18T05:24:38.432Z,97.60
2018-06-18T05:27:08.478Z,98.75
2018-06-18T05:29:37.645Z,98.20
2018-06-18T05:32:06.790Z,96.75
2018-06-18T05:37:24.899Z,96.04
2018-06-18T05:39:54.417Z,95.72
2018-06-18T05:42:27.454Z,94.29
2018-06-18T05:45:01.613Z,96.17
2018-06-18T05:53:26.402Z,88.82
2018-06-18T05:55:59.345Z,89.14
2018-06-18T05:58:38.024Z,89.34
2018-06-18T06:01:10.631Z,90.50
2018-06-18T06:03:42.840Z,89.87
2018-06-18T06:06:14.997Z,89.06
2018-06-18T06:08:44.184Z,90.40
2018-06-18T06:11:14.162Z,86.81
2018-06-18T06:13:43.235Z,85.90
2018-06-18T06:16:14.250Z,86.71
2018-06-18T06:18:43.481Z,85.44
2018-06-18T06:21:14.509Z,86.28
2018-06-18T06:23:43.573Z,81.77
2018-06-18T06:26:12.648Z,84.85
2018-06-18T06:28:41.695Z,79.41
2018-06-18T06:31:10.764Z,81.89
2018-06-18T06:33:39.830Z,82.97
2018-06-18T06:36:19.135Z,84.75
2018-06-18T06:38:48.258Z,82.02
2018-06-18T06:43:53.098Z,82.92
2018-06-18T06:48:59.487Z,81.98
2018-06-18T06:51:30.429Z,82.46
2018-06-18T06:54:03.295Z,85.06
2018-06-18T07:01:46.114Z,82.99
2018-06-18T07:04:15.843Z,83.94
2018-06-18T07:06:45.317Z,83.33
2018-06-18T07:09:14.705Z,81.22
2018-06-18T07:11:43.822Z,81.11
2018-06-18T07:14:12.885Z,79.69
2018-06-18T07:16:41.955Z,76.47
2018-06-18T07:21:47.733Z,76.81
2018-06-18T07:24:16.833Z,77.06
2018-06-18T07:26:46.191Z,76.59
2018-06-18T07:31:51.022Z,76.30
2018-06-18T07:34:21.224Z,72.80
2018-06-18T07:36:50.274Z,71.87
2018-06-18T07:39:30.900Z,72.65
2018-06-18T07:42:01.863Z,67.12
2018-06-18T07:44:32.841Z,68.69
2018-06-18T07:47:01.910Z,71.38
2018-06-18T07:49:31.944Z,68.29
2018-06-18T07:52:02.174Z,69.02
2018-06-18T07:54:33.141Z,70.15
2018-06-18T07:57:02.297Z,69.29
2018-06-18T08:02:07.138Z,65.14
2018-06-18T08:04:44.530Z,65.56
2018-06-18T08:07:13.720Z,65.81
2018-06-18T08:10:05.884Z,66.79
2018-06-18T08:12:34.961Z,67.16
2018-06-18T08:15:05.962Z,61.26
2018-06-18T08:17:35.095Z,64.45
2018-06-18T08:20:06.046Z,67.85
2018-06-18T08:22:49.904Z,64.23
2018-06-18T08:25:18.953Z,60.85
2018-06-18T08:27:57.005Z,62.94
2018-06-18T08:30:39.542Z,61.29
2018-06-18T08:33:08.618Z,61.09
2018-06-18T08:35:39.245Z,60.87
2018-06-18T08:38:08.330Z,58.33
2018-06-18T08:40:37.494Z,59.86
2018-06-18T08:43:10.823Z,58.21
2018-06-18T08:45:39.994Z,56.41
2018-06-18T08:48:10.016Z,58.93
2018-06-18T08:50:46.890Z,55.58
2018-06-18T09:02:06.039Z,54.39
2018-06-18T09:04:35.121Z,52.38
2018-06-18T09:07:04.254Z,52.65
2018-06-18T09:09:46.276Z,52.40
2018-06-18T09:12:15.346Z,53.02
2018-06-18T09:14:46.302Z,55.43
2018-06-18T09:17:15.362Z,54.68
2018-06-18T09:19:48.096Z,49.70
2018-06-18T09:22:17.392Z,52.57
2018-06-18T09:27:57.381Z,51.33
2018-06-18T09:30:26.444Z,48.76
2018-06-18T09:35:35.733Z,43.97
2018-06-18T09:38:05.691Z,43.23
2018-06-18T09:40:52.356Z,44.70
2018-06-18T09:43:21.531Z,48.34
2018-06-18T09:48:38.447Z,42.77
2018-06-18T10:00:05.854Z,42.61
2018-06-18T10:02:38.138Z,42.00
2018-06-18T10:05:07.285Z,44.78
2018-06-18T10:07:36.323Z,42.19
2018-06-18T10:10:05.385Z,42.23
2018-06-18T10:12:34.909Z,43.04
2018-06-18T10:15:04.160Z,45.34
2018-06-18T10:17:34.482Z,44.40
2018-06-18T10:22:57.667Z,47.35
2018-06-18T10:25:27.668Z,49.44
2018-06-18T10:27:56.724Z,46.69
2018-06-18T10:30:26.211Z,45.46
2018-06-18T10:33:08.727Z,41.87
2018-06-18T10:39:01.743Z,39.66
2018-06-18T10:44:28.165Z,37.24
2018-06-18T10:46:57.323Z,34.92
2018-06-18T10:49:26.369Z,34.81
2018-06-18T10:51:55.461Z,35.02
2018-06-18T10:54:24.567Z,39.10
2018-06-18T10:59:29.591Z,38.10
2018-06-18T11:02:05.846Z,37.09
2018-06-18T11:04:57.633Z,37.08
2018-06-18T11:10:02.543Z,36.10
2018-06-18T11:15:22.125Z,36.95
2018-06-18T11:17:51.385Z,33.31
2018-06-18T11:23:19.218Z,34.34
2018-06-18T11:28:24.323Z,32.46
2018-06-18T11:31:08.725Z,33.68
2018-06-18T11:33:43.642Z,31.95
2018-06-18T11:36:12.837Z,33.18
2018-06-18T11:39:00.119Z,36.12
2018-06-18T11:41:52.127Z,35.41
2018-06-18T11:44:21.290Z,35.82
2018-06-18T11:46:50.390Z,35.77
2018-06-18T11:49:19.448Z,37.38
2018-06-18T11:51:49.395Z,36.78
2018-06-18T11:54:18.500Z,35.91
2018-06-18T11:59:23.353Z,34.55
2018-06-18T12:13:01.930Z,32.72
2018-06-18T12:18:06.772Z,30.92
2018-06-18T12:20:37.782Z,28.95
2018-06-18T12:23:06.953Z,30.16
2018-06-18T12:25:36.000Z,32.13
2018-06-18T12:28:07.087Z,30.57
2018-06-18T12:30:49.460Z,32.30
2018-06-18T12:33:18.520Z,33.88
2018-06-18T12:35:48.551Z,34.38
2018-06-18T12:38:17.709Z,34.74
2018-06-18T12:43:23.724Z,29.39
2018-06-18T12:46:09.535Z,30.07
2018-06-18T12:51:20.883Z,34.87
2018-06-18T12:56:50.853Z,34.37
2018-06-18T12:59:19.908Z,34.08
2018-06-18T13:01:59.037Z,35.73
2018-06-18T13:04:28.193Z,35.03
2018-06-18T13:06:59.190Z,35.73
2018-06-18T13:09:28.243Z,32.71
2018-06-18T13:11:57.334Z,32.73
2018-06-18T13:14:26.433Z,32.83
2018-06-18T13:16:55.521Z,33.53
2018-06-18T13:19:24.554Z,32.09
2018-06-18T13:22:04.020Z,28.58
2018-06-18T13:24:36.206Z,28.74
2018-06-18T13:27:06.563Z,28.04
2018-06-18T13:29:35.936Z,30.48
2018-06-18T13:32:04.981Z,28.65
2018-06-18T13:34:34.050Z,26.81
2018-06-18T13:37:05.353Z,26.94
2018-06-18T13:42:35.894Z,30.69
2018-06-18T13:50:37.062Z,24.55
2018-06-18T13:53:18.673Z,26.21
2018-06-18T13:55:51.260Z,29.34
2018-06-18T13:58:32.519Z,28.16
2018-06-18T14:01:07.669Z,30.84
2018-06-18T14:03:40.271Z,32.11
2018-06-18T14:06:15.263Z,33.03
2018-06-18T14:08:44.302Z,32.02
2018-06-18T14:11:30.927Z,32.08
2018-06-18T14:16:35.963Z,30.95
2018-06-18T14:19:10.369Z,30.95
2018-06-18T14:21:40.419Z,29.92
2018-06-18T14:24:14.013Z,29.38
2018-06-18T14:26:43.185Z,27.97
2018-06-18T14:29:24.645Z,27.82
2018-06-18T14:40:30.530Z,35.77
2018-06-18T14:42:59.633Z,33.79
2018-06-18T14:45:28.700Z,33.23
2018-06-18T14:47:58.123Z,32.07
2018-06-18T14:50:27.176Z,34.85
2018-06-18T14:52:56.282Z,37.70
2018-06-18T14:55:28.651Z,33.37
2018-06-18T14:58:06.545Z,32.09
2018-06-18T15:00:35.662Z,31.81
2018-06-18T15:03:04.711Z,31.74
2018-06-18T15:05:34.937Z,33.44
2018-06-18T15:08:03.969Z,32.27
2018-06-18T15:10:34.478Z,33.82
2018-06-18T15:13:04.724Z,36.76
2018-06-18T15:15:35.332Z,34.85
2018-06-18T15:18:04.412Z,29.90
2018-06-18T15:20:34.817Z,30.60
2018-06-18T15:23:04.267Z,30.64
2018-06-18T15:25:34.196Z,29.37
2018-06-18T15:30:39.231Z,33.20
2018-06-18T15:33:08.284Z,33.20
2018-06-18T15:35:37.453Z,32.11
2018-06-18T15:38:08.599Z,29.96
2018-06-18T15:40:37.684Z,30.37
2018-06-18T15:43:10.529Z,30.54
2018-06-18T15:45:39.679Z,31.21
2018-06-18T15:48:16.970Z,33.72
2018-06-18T15:50:46.933Z,29.10
2018-06-18T15:55:52.687Z,29.68
2018-06-18T16:03:40.334Z,36.53
2018-06-18T16:06:09.398Z,41.48
2018-06-18T16:08:38.488Z,39.17
2018-06-18T16:14:18.351Z,38.41
2018-06-18T16:19:24.329Z,42.64
2018-06-18T16:24:29.126Z,34.28
2018-06-18T16:27:05.500Z,32.66
2018-06-18T16:29:35.090Z,38.74
2018-06-18T16:32:14.211Z,42.12
2018-06-18T16:34:43.270Z,44.28
2018-06-18T16:37:12.341Z,46.46
2018-06-18T16:39:42.282Z,45.68
2018-06-18T16:44:51.538Z,44.54
2018-06-18T16:47:28.213Z,43.50
2018-06-18T16:49:57.328Z,45.59
2018-06-18T16:52:28.510Z,46.04
2018-06-18T16:55:02.665Z,46.62
2018-06-18T16:57:31.855Z,45.75
2018-06-18T17:00:05.289Z,46.22
2018-06-18T17:02:34.774Z,44.50
2018-06-18T17:05:03.822Z,45.00
2018-06-18T17:07:32.877Z,46.06
2018-06-18T17:10:02.107Z,44.48
2018-06-18T17:12:31.168Z,44.69
2018-06-18T17:15:00.226Z,45.43
2018-06-18T17:17:34.625Z,45.21
2018-06-18T17:20:03.670Z,46.10
2018-06-18T17:22:34.695Z,48.61
2018-06-18T17:25:03.749Z,48.80
2018-06-18T17:30:09.059Z,47.88
2018-06-18T17:32:39.069Z,47.21
2018-06-18T17:35:08.210Z,48.32
2018-06-18T17:37:41.563Z,47.65
2018-06-18T17:40:10.689Z,48.14
2018-06-18T17:45:15.763Z,48.13
2018-06-18T17:47:44.829Z,47.03
2018-06-18T17:50:13.948Z,49.09
2018-06-18T17:52:55.477Z,49.11
2018-06-18T17:55:28.293Z,50.76
2018-06-18T17:57:57.412Z,49.37
2018-06-18T18:00:30.064Z,49.12
2018-06-18T18:02:59.210Z,50.02
2018-06-18T18:05:28.266Z,50.24
2018-06-18T18:07:57.334Z,49.61
2018-06-18T18:10:26.450Z,50.00
2018-06-18T18:12:56.386Z,52.99
2018-06-18T18:15:27.445Z,51.18
2018-06-18T18:17:56.601Z,53.94
2018-06-18T18:20:26.646Z,52.65
2018-06-18T18:22:55.719Z,53.92
2018-06-18T18:25:24.774Z,58.92
2018-06-18T18:27:54.856Z,59.38
2018-06-18T18:30:26.214Z,59.04
2018-06-18T18:32:55.311Z,58.35
2018-06-18T18:35:25.390Z,55.95
2018-06-18T18:37:54.494Z,63.52
2018-06-18T18:42:59.314Z,68.68
2018-06-18T18:45:29.380Z,67.41
2018-06-18T18:47:58.442Z,68.02
2018-06-18T18:50:27.609Z,70.45
2018-06-18T18:52:57.562Z,71.52
2018-06-18T18:59:06.330Z,68.33
2018-06-18T19:01:37.385Z,72.60
2018-06-18T19:04:06.563Z,76.64
2018-06-18T19:06:35.797Z,73.00
2018-06-18T19:09:04.849Z,74.09
2018-06-18T19:11:33.947Z,75.80
2018-06-18T19:14:02.946Z,74.92
2018-06-18T19:16:33.116Z,74.83
2018-06-18T19:19:02.222Z,73.82
2018-06-18T19:21:33.258Z,78.46
2018-06-18T19:24:02.305Z,80.44
2018-06-18T19:26:31.365Z,80.56
2018-06-18T19:29:01.330Z,76.81
2018-06-18T19:31:30.389Z,78.40
2018-06-18T19:33:59.443Z,77.26
2018-06-18T19:36:28.488Z,80.10
2018-06-18T19:38:57.578Z,78.08
2018-06-18T19:41:26.648Z,77.24
2018-06-18T19:43:55.679Z,77.71
2018-06-18T19:46:24.827Z,82.17
2018-06-18T19:48:53.882Z,83.25
2018-06-18T19:51:26.354Z,77.42
2018-06-18T19:53:55.407Z,81.63
2018-06-18T19:56:24.500Z,82.72
2018-06-18T19:58:53.517Z,84.40
2018-06-18T20:01:22.612Z,83.15
2018-06-18T20:03:51.738Z,81.25
2018-06-18T20:06:21.777Z,87.42
2018-06-18T20:08:50.852Z,88.75
2018-06-18T20:11:19.904Z,90.02
2018-06-18T20:13:49.875Z,89.04
2018-06-18T20:16:18.929Z,87.58
2018-06-18T20:18:47.990Z,86.68
2018-06-18T20:21:17.037Z,85.56
2018-06-18T20:23:46.090Z,82.32
2018-06-18T20:26:15.166Z,84.02
2018-06-18T20:31:19.937Z,86.87
2018-06-18T20:33:49.958Z,86.47
2018-06-18T20:36:19.001Z,86.53
2018-06-18T20:38:48.970Z,87.10
2018-06-18T20:41:18.055Z,86.53
2018-06-18T20:43:47.140Z,84.51
2018-06-18T20:46:16.191Z,84.63
2018-06-18T20:51:21.088Z,87.23
2018-06-18T20:56:25.878Z,86.74
2018-06-18T20:58:54.961Z,88.26
2018-06-18T21:01:24.021Z,88.18
2018-06-18T21:03:53.058Z,87.87
2018-06-18T21:06:23.069Z,89.60
2018-06-18T21:08:52.135Z,87.47
2018-06-18T21:11:21.352Z,86.35
2018-06-18T21:16:26.182Z,83.22
2018-06-18T21:18:55.300Z,84.21
2018-06-18T21:21:26.285Z,88.16
2018-06-18T21:23:55.368Z,89.47
2018-06-18T21:26:26.371Z,89.37
2018-06-18T21:28:55.419Z,88.42
2018-06-18T21:31:25.450Z,89.37
2018-06-18T21:33:54.551Z,89.59
2018-06-18T21:36:23.574Z,87.83
2018-06-18T21:38:52.634Z,90.31
2018-06-18T21:41:21.773Z,90.93
2018-06-18T21:43:50.837Z,93.03
2018-06-18T21:46:19.903Z,93.50
2018-06-18T21:48:48.997Z,92.03
2018-06-18T21:51:18.047Z,88.91
2018-06-18T21:53:47.237Z,90.78
2018-06-18T21:58:52.366Z,86.69
2018-06-18T22:01:21.596Z,86.68
2018-06-18T22:06:26.601Z,84.63
2018-06-18T22:11:31.534Z,84.16
2018-06-18T22:14:01.907Z,86.33
2018-06-18T22:16:31.040Z,87.82
2018-06-18T22:19:02.357Z,87.32
2018-06-18T22:21:31.457Z,83.75
2018-06-18T22:24:00.534Z,89.86
2018-06-18T22:26:29.785Z,89.91
2018-06-18T22:31:34.768Z,87.25
2018-06-18T22:34:06.190Z,90.55
2018-06-18T22:36:35.306Z,92.66
2018-06-18T22:39:04.676Z,94.16
2018-06-18T22:41:33.737Z,95.38
2018-06-18T22:44:03.923Z,95.00
2018-06-18T22:46:33.165Z,93.59
2018-06-18T22:49:08.236Z,92.12
2018-06-18T22:51:37.493Z,92.96
2018-06-18T22:54:07.438Z,92.60
2018-06-18T22:56:39.417Z,93.28
2018-06-18T23:01:46.776Z,88.37
2018-06-18T23:04:16.561Z,91.57
2018-06-18T23:09:21.793Z,92.51
2018-06-18T23:11:50.825Z,92.59
2018-06-18T23:14:19.963Z,92.02
2018-06-18T23:19:24.840Z,91.54
2018-06-18T23:24:29.685Z,89.96
2018-06-18T23:26:58.741Z,89.87
2018-06-18T23:29:27.933Z,90.35
2018-06-18T23:31:57.040Z,92.52
2018-06-18T23:34:26.120Z,93.18
2018-06-18T23:36:55.790Z,92.07
2018-06-18T23:39:25.251Z,92.02
2018-06-18T23:41:56.303Z,91.75
2018-06-18T23:44:25.397Z,92.71
2018-06-18T23:46:55.426Z,93.02
2018-06-18T23:49:24.494Z,92.09
2018-06-18T23:51:53.542Z,92.89
2018-06-18T23:54:22.612Z,96.15
2018-06-18T23:59:27.390Z,97.10
